Time;durP1;ratioP1;P1;durP2;ratioP2;P2;SDS_P1;SDS_P2;PMS_P1;PMS_P2;Temp;Humidity;BMP_temperature;BMP_pressure;BME280_temperature;BME280_humidity;BME280_pressure;Samples;Min_cycle;Max_cycle;Signal;HPM_P1;HPM_P2
2023/05/18 00:02:06;;;;;;;9.10;2.33;;;;;;;;;;4326660;32;418066;-80
2023/05/18 00:04:35;;;;;;;3.67;2.43;;;;;;;;;;4338307;32;317356;-80
2023/05/18 00:07:03;;;;;;;7.23;2.40;;;;;;;;;;4328222;32;316942;-79
2023/05/18 00:09:31;;;;;;;7.17;2.33;;;;;;;;;;4339843;32;317465;-80
2023/05/18 00:11:59;;;;;;;9.03;2.13;;;;;;;;;;4328646;32;317714;-80
2023/05/18 00:14:25;;;;;;;4.70;1.67;;;;;;;;;;4339621;32;317592;-80
2023/05/18 00:16:53;;;;;;;5.23;2.10;;;;;;;;;;4329997;32;317506;-80
2023/05/18 00:19:20;;;;;;;4.10;2.22;;;;;;;;;;4338895;32;316491;-82
2023/05/18 00:21:49;;;;;;;2.58;1.67;;;;;;;;;;4331391;32;317431;-80
2023/05/18 00:24:16;;;;;;;6.47;2.37;;;;;;;;;;4351769;32;317413;-80
2023/05/18 00:26:44;;;;;;;5.10;1.75;;;;;;;;;;4347284;32;317623;-80
2023/05/18 00:29:11;;;;;;;5.30;2.20;;;;;;;;;;4350687;32;317182;-78
2023/05/18 00:31:38;;;;;;;6.97;3.00;;;;;;;;;;4348318;32;317145;-78
2023/05/18 00:34:05;;;;;;;8.27;2.42;;;;;;;;;;4332757;32;416637;-78
2023/05/18 00:36:32;;;;;;;7.67;4.10;;;;;;;;;;4338695;32;316954;-78
2023/05/18 00:39:01;;;;;;;11.57;3.67;;;;;;;;;;4329346;32;317182;-78
2023/05/18 00:41:28;;;;;;;14.13;3.40;;;;;;;;;;4355466;32;341999;-78
2023/05/18 00:43:55;;;;;;;7.82;2.03;;;;;;;;;;4357533;32;318111;-80
2023/05/18 00:46:22;;;;;;;6.18;2.03;;;;;;;;;;4367323;32;317128;-80
2023/05/18 00:48:51;;;;;;;6.00;2.60;;;;;;;;;;4358662;32;317522;-80
2023/05/18 00:51:18;;;;;;;5.97;2.30;;;;;;;;;;4359764;32;317160;-80
2023/05/18 00:53:45;;;;;;;7.87;1.90;;;;;;;;;;4342805;32;316527;-80
2023/05/18 00:56:14;;;;;;;6.57;2.75;;;;;;;;;;4351999;32;336368;-79
2023/05/18 00:58:42;;;;;;;12.43;2.80;;;;;;;;;;4343890;32;317476;-81
2023/05/18 01:01:09;;;;;;;6.20;2.95;;;;;;;;;;4352030;32;356932;-79
2023/05/18 01:03:37;;;;;;;6.97;2.70;;;;;;;;;;4352042;32;317410;-81
2023/05/18 01:06:04;;;;;;;8.43;2.47;;;;;;;;;;4340076;32;418044;-80
2023/05/18 01:08:32;;;;;;;5.95;1.98;;;;;;;;;;4353702;32;317511;-78
2023/05/18 01:11:07;;;;;;;5.32;2.05;;;;;;;;;;4343816;32;317261;-78
2023/05/18 01:13:43;;;;;;;4.80;1.80;;;;;;;;;;4352224;32;316618;-78
2023/05/18 01:16:12;;;;;;;7.47;1.93;;;;;;;;;;4340638;32;418053;-78
2023/05/18 01:18:47;;;;;;;6.67;2.60;;;;;;;;;;4344334;32;316954;-80
2023/05/18 01:21:24;;;;;;;3.47;2.10;;;;;;;;;;4352163;32;317252;-79
2023/05/18 01:24:08;;;;;;;7.77;2.27;;;;;;;;;;4342673;32;317044;-79
2023/05/18 01:26:44;;;;;;;8.73;1.92;;;;;;;;;;4353417;32;317808;-78
2023/05/18 01:29:13;;;;;;;5.68;1.98;;;;;;;;;;4340290;32;418467;-79
2023/05/18 01:31:40;;;;;;;5.17;2.17;;;;;;;;;;4342918;32;317271;-81
2023/05/18 01:34:08;;;;;;;3.78;2.20;;;;;;;;;;4347932;32;316689;-78
2023/05/18 01:36:34;;;;;;;13.20;2.80;;;;;;;;;;4352713;32;317189;-78
2023/05/18 01:39:01;;;;;;;9.67;1.87;;;;;;;;;;4342134;32;318242;-79
2023/05/18 01:41:29;;;;;;;5.50;2.22;;;;;;;;;;4352900;32;317394;-79
2023/05/18 01:44:11;;;;;;;5.32;2.37;;;;;;;;;;4342399;32;316837;-78
2023/05/18 01:46:46;;;;;;;4.55;2.42;;;;;;;;;;4351950;32;317268;-78
2023/05/18 01:49:18;;;;;;;6.23;2.37;;;;;;;;;;4339205;32;417479;-78
2023/05/18 01:51:46;;;;;;;7.05;2.35;;;;;;;;;;4330555;32;317231;-78
2023/05/18 01:54:18;;;;;;;3.55;2.00;;;;;;;;;;4338195;32;317041;-78
2023/05/18 01:56:45;;;;;;;4.97;2.67;;;;;;;;;;4328528;32;317556;-78
2023/05/18 01:59:14;;;;;;;6.55;2.17;;;;;;;;;;4336838;32;317522;-78
2023/05/18 02:01:41;;;;;;;3.43;1.43;;;;;;;;;;4327814;32;317443;-78
2023/05/18 02:04:09;;;;;;;3.93;1.90;;;;;;;;;;4337149;32;317170;-78
2023/05/18 02:06:36;;;;;;;6.62;2.75;;;;;;;;;;4337592;32;317186;-78
2023/05/18 02:09:04;;;;;;;2.20;1.63;;;;;;;;;;4326471;32;317360;-79
2023/05/18 02:11:30;;;;;;;3.50;1.60;;;;;;;;;;4337952;32;317264;-81
2023/05/18 02:13:57;;;;;;;7.00;2.08;;;;;;;;;;4328235;32;317455;-79
2023/05/18 02:16:25;;;;;;;3.50;1.87;;;;;;;;;;4337207;32;317290;-80
2023/05/18 02:18:53;;;;;;;3.62;2.00;;;;;;;;;;4328071;32;316768;-80
2023/05/18 02:21:20;;;;;;;6.43;2.85;;;;;;;;;;4336281;32;317074;-79
2023/05/18 02:23:47;;;;;;;6.03;2.83;;;;;;;;;;4328102;32;317183;-80
2023/05/18 02:26:14;;;;;;;9.35;3.15;;;;;;;;;;4336504;32;317034;-80
2023/05/18 02:28:41;;;;;;;10.88;3.10;;;;;;;;;;4327946;32;317438;-80
2023/05/18 02:31:10;;;;;;;4.28;2.35;;;;;;;;;;4340659;32;317903;-79
2023/05/18 02:33:39;;;;;;;8.50;3.33;;;;;;;;;;4343946;32;316723;-80
2023/05/18 02:36:08;;;;;;;5.87;2.70;;;;;;;;;;4353257;32;416810;-80
2023/05/18 02:38:37;;;;;;;6.00;2.40;;;;;;;;;;4367472;32;317821;-80
2023/05/18 02:41:04;;;;;;;3.30;1.65;;;;;;;;;;4350441;32;349386;-80
2023/05/18 02:43:30;;;;;;;3.70;1.75;;;;;;;;;;4356237;32;317455;-80
2023/05/18 02:45:57;;;;;;;6.77;2.13;;;;;;;;;;4342937;32;317207;-79
2023/05/18 02:48:24;;;;;;;3.30;1.62;;;;;;;;;;4351365;32;317450;-80
2023/05/18 02:50:52;;;;;;;2.83;2.10;;;;;;;;;;4335757;32;317252;-79
2023/05/18 02:53:19;;;;;;;6.60;2.62;;;;;;;;;;4337704;32;317297;-80
2023/05/18 02:55:47;;;;;;;9.07;2.42;;;;;;;;;;4328130;32;317501;-79
2023/05/18 02:58:14;;;;;;;4.65;2.65;;;;;;;;;;4336795;32;317316;-80
2023/05/18 03:00:41;;;;;;;3.25;2.05;;;;;;;;;;4326741;32;317224;-79
2023/05/18 03:03:09;;;;;;;10.53;2.67;;;;;;;;;;4336543;32;316808;-80
2023/05/18 03:05:36;;;;;;;5.05;2.47;;;;;;;;;;4335967;32;318401;-80
2023/05/18 03:08:05;;;;;;;4.10;2.37;;;;;;;;;;4324980;32;355366;-80
2023/05/18 03:10:31;;;;;;;3.70;2.30;;;;;;;;;;4337711;32;316976;-79
2023/05/18 03:12:58;;;;;;;8.67;2.70;;;;;;;;;;4326494;32;317314;-81
2023/05/18 03:15:25;;;;;;;6.53;2.20;;;;;;;;;;4337598;32;316574;-80
2023/05/18 03:17:52;;;;;;;4.72;3.35;;;;;;;;;;4326327;32;317302;-80
2023/05/18 03:20:20;;;;;;;7.20;3.60;;;;;;;;;;4335713;32;338658;-82
2023/05/18 03:22:47;;;;;;;8.90;2.95;;;;;;;;;;4326779;32;317465;-79
2023/05/18 03:25:15;;;;;;;6.40;2.60;;;;;;;;;;4337745;32;317247;-80
2023/05/18 03:27:41;;;;;;;5.47;3.58;;;;;;;;;;4328134;32;317298;-79
2023/05/18 03:30:09;;;;;;;15.53;4.53;;;;;;;;;;4339782;32;316649;-79
2023/05/18 03:32:36;;;;;;;5.97;3.30;;;;;;;;;;4338615;32;318289;-80
2023/05/18 03:35:04;;;;;;;14.45;3.75;;;;;;;;;;4328727;32;317297;-80
2023/05/18 03:37:31;;;;;;;7.27;4.57;;;;;;;;;;4339497;32;326317;-79
2023/05/18 03:39:59;;;;;;;9.60;5.62;;;;;;;;;;4330634;32;317628;-79
2023/05/18 03:42:27;;;;;;;8.45;5.15;;;;;;;;;;4338349;32;317155;-80
2023/05/18 03:44:54;;;;;;;7.68;4.65;;;;;;;;;;4329074;32;317424;-80
2023/05/18 03:47:21;;;;;;;9.65;5.53;;;;;;;;;;4339472;32;317508;-80
2023/05/18 03:49:47;;;;;;;19.05;6.07;;;;;;;;;;4329742;32;317285;-80
2023/05/18 03:52:20;;;;;;;8.98;5.45;;;;;;;;;;4339417;32;317482;-80
2023/05/18 03:54:48;;;;;;;15.60;5.60;;;;;;;;;;4329816;32;317523;-80
2023/05/18 03:57:15;;;;;;;12.13;5.07;;;;;;;;;;4338735;32;336673;-78
2023/05/18 03:59:43;;;;;;;11.05;4.22;;;;;;;;;;4326521;32;350128;-82
2023/05/18 04:02:10;;;;;;;9.52;4.65;;;;;;;;;;4337131;32;343777;-79
2023/05/18 04:04:40;;;;;;;7.80;3.20;;;;;;;;;;4338011;32;316683;-80
2023/05/18 04:07:07;;;;;;;9.23;3.83;;;;;;;;;;4325060;32;417572;-80
2023/05/18 04:09:35;;;;;;;5.85;3.50;;;;;;;;;;4337942;32;345180;-81
2023/05/18 04:12:02;;;;;;;6.75;3.92;;;;;;;;;;4329397;32;317894;-81
2023/05/18 04:14:31;;;;;;;8.93;3.77;;;;;;;;;;4338005;32;317124;-81
2023/05/18 04:17:03;;;;;;;13.90;3.80;;;;;;;;;;4328178;32;317471;-81
2023/05/18 04:19:30;;;;;;;8.77;4.17;;;;;;;;;;4337953;32;318488;-83
2023/05/18 04:21:57;;;;;;;7.30;3.70;;;;;;;;;;4328225;32;317160;-78
2023/05/18 04:24:25;;;;;;;8.55;3.78;;;;;;;;;;4339923;32;317549;-79
2023/05/18 04:26:52;;;;;;;10.52;4.12;;;;;;;;;;4329454;32;317194;-79
2023/05/18 04:29:20;;;;;;;9.33;4.20;;;;;;;;;;4342071;32;317874;-80
2023/05/18 04:31:47;;;;;;;5.97;4.07;;;;;;;;;;4347673;32;316844;-81
2023/05/18 04:34:16;;;;;;;7.80;4.15;;;;;;;;;;4352633;32;356683;-81
2023/05/18 04:36:43;;;;;;;10.13;4.47;;;;;;;;;;4341424;32;317374;-81
2023/05/18 04:39:11;;;;;;;7.15;4.43;;;;;;;;;;4349821;32;316946;-81
2023/05/18 04:41:41;;;;;;;10.40;4.47;;;;;;;;;;4352396;32;317095;-79
2023/05/18 04:44:08;;;;;;;6.97;4.40;;;;;;;;;;4341330;32;419118;-80
2023/05/18 04:46:38;;;;;;;8.85;4.70;;;;;;;;;;4353805;32;317222;-80
2023/05/18 04:49:05;;;;;;;5.93;4.10;;;;;;;;;;4339680;32;416751;-80
2023/05/18 04:51:33;;;;;;;9.00;4.47;;;;;;;;;;4352920;32;317267;-81
2023/05/18 04:54:01;;;;;;;6.28;4.35;;;;;;;;;;4342864;32;348867;-80
2023/05/18 04:56:29;;;;;;;6.62;3.42;;;;;;;;;;4352277;32;316834;-81
2023/05/18 04:58:58;;;;;;;11.77;4.22;;;;;;;;;;4343795;32;317471;-80
2023/05/18 05:01:25;;;;;;;10.13;3.78;;;;;;;;;;4353286;32;318334;-80
2023/05/18 05:03:52;;;;;;;5.15;3.12;;;;;;;;;;4341862;32;318363;-80
2023/05/18 05:06:19;;;;;;;9.80;3.37;;;;;;;;;;4352356;32;317332;-80
2023/05/18 05:08:47;;;;;;;3.90;3.30;;;;;;;;;;4343297;32;317423;-79
2023/05/18 05:11:14;;;;;;;6.97;3.80;;;;;;;;;;4353310;32;317448;-80
2023/05/18 05:13:42;;;;;;;9.40;3.60;;;;;;;;;;4342144;32;317880;-80
2023/05/18 05:16:08;;;;;;;5.63;4.43;;;;;;;;;;4352165;32;317271;-79
2023/05/18 05:18:35;;;;;;;5.57;4.40;;;;;;;;;;4350625;32;349709;-81
2023/05/18 05:21:02;;;;;;;7.47;5.17;;;;;;;;;;4342551;32;317267;-79
2023/05/18 05:23:28;;;;;;;5.27;4.10;;;;;;;;;;4352327;32;317516;-79
2023/05/18 05:25:56;;;;;;;4.93;3.33;;;;;;;;;;4341609;32;339550;-80
2023/05/18 05:28:23;;;;;;;5.20;4.20;;;;;;;;;;4351571;32;317376;-79
2023/05/18 05:30:50;;;;;;;5.17;3.43;;;;;;;;;;4341896;32;317157;-79
2023/05/18 05:33:17;;;;;;;3.55;2.78;;;;;;;;;;4350908;32;317471;-79
2023/05/18 05:35:44;;;;;;;7.20;3.22;;;;;;;;;;4339426;32;317323;-80
2023/05/18 05:38:11;;;;;;;4.55;2.80;;;;;;;;;;4349856;32;317310;-79
2023/05/18 05:40:38;;;;;;;5.82;3.62;;;;;;;;;;4347790;32;316980;-79
2023/05/18 05:43:06;;;;;;;5.65;3.30;;;;;;;;;;4341654;32;316787;-79
2023/05/18 05:45:33;;;;;;;6.95;3.45;;;;;;;;;;4352145;32;317422;-80
2023/05/18 05:47:59;;;;;;;3.28;2.50;;;;;;;;;;4342872;32;317304;-79
2023/05/18 05:50:27;;;;;;;7.28;2.75;;;;;;;;;;4350792;32;317217;-79
2023/05/18 05:52:54;;;;;;;3.85;2.53;;;;;;;;;;4342532;32;317366;-79
2023/05/18 05:55:21;;;;;;;7.80;2.53;;;;;;;;;;4352686;32;317657;-79
2023/05/18 05:57:48;;;;;;;5.97;2.15;;;;;;;;;;4342614;32;317350;-79
2023/05/18 06:00:17;;;;;;;9.20;2.75;;;;;;;;;;4344722;32;316735;-79
2023/05/18 06:02:43;;;;;;;11.43;3.50;;;;;;;;;;4341477;32;316538;-79
2023/05/18 06:05:10;;;;;;;14.82;5.50;;;;;;;;;;4351103;32;318371;-82
2023/05/18 06:07:37;;;;;;;8.93;5.12;;;;;;;;;;4351985;32;318160;-80
2023/05/18 06:10:04;;;;;;;7.47;3.97;;;;;;;;;;4343184;32;317251;-80
2023/05/18 06:12:31;;;;;;;3.62;2.87;;;;;;;;;;4352204;32;317396;-80
2023/05/18 06:14:58;;;;;;;3.83;2.95;;;;;;;;;;4341200;32;316639;-80
2023/05/18 06:17:26;;;;;;;4.10;2.28;;;;;;;;;;4351135;32;316819;-81
2023/05/18 06:19:53;;;;;;;4.80;2.27;;;;;;;;;;4340857;32;322500;-80
2023/05/18 06:22:20;;;;;;;13.60;3.62;;;;;;;;;;4352034;32;317294;-80
2023/05/18 06:24:47;;;;;;;3.03;2.07;;;;;;;;;;4342485;32;318368;-80
2023/05/18 06:27:13;;;;;;;2.97;1.80;;;;;;;;;;4352245;32;316435;-80
2023/05/18 06:29:40;;;;;;;4.12;2.60;;;;;;;;;;4340623;32;317102;-78
2023/05/18 06:32:07;;;;;;;5.20;2.62;;;;;;;;;;4347597;32;317260;-80
2023/05/18 06:34:36;;;;;;;3.25;2.22;;;;;;;;;;4347105;32;337007;-78
2023/05/18 06:37:03;;;;;;;3.17;1.80;;;;;;;;;;4339614;32;317126;-78
2023/05/18 06:39:30;;;;;;;5.28;2.35;;;;;;;;;;4337345;32;317181;-80
2023/05/18 06:41:56;;;;;;;3.03;2.10;;;;;;;;;;4326047;32;316633;-81
2023/05/18 06:44:23;;;;;;;8.00;4.47;;;;;;;;;;4337081;32;317184;-80
2023/05/18 06:46:50;;;;;;;3.87;2.63;;;;;;;;;;4327414;32;316420;-78
2023/05/18 06:49:16;;;;;;;10.77;3.75;;;;;;;;;;4335646;33;317198;-80
2023/05/18 06:51:45;;;;;;;11.50;5.07;;;;;;;;;;4325145;32;318435;-82
2023/05/18 06:54:11;;;;;;;10.57;5.53;;;;;;;;;;4335999;32;318278;-80
2023/05/18 06:56:38;;;;;;;7.90;4.50;;;;;;;;;;4336794;33;318355;-77
2023/05/18 06:59:04;;;;;;;11.68;3.72;;;;;;;;;;4326937;32;316628;-82
2023/05/18 07:01:32;;;;;;;8.02;3.58;;;;;;;;;;4336676;32;318322;-82
2023/05/18 07:03:59;;;;;;;3.37;1.90;;;;;;;;;;4329336;32;317223;-81
2023/05/18 07:06:25;;;;;;;3.42;1.95;;;;;;;;;;4338305;32;317135;-81
2023/05/18 07:08:53;;;;;;;7.10;2.42;;;;;;;;;;4327102;32;317313;-81
2023/05/18 07:11:20;;;;;;;3.78;2.17;;;;;;;;;;4336795;32;317568;-79
2023/05/18 07:13:47;;;;;;;9.07;2.95;;;;;;;;;;4326967;32;317135;-79
2023/05/18 07:16:14;;;;;;;11.10;2.37;;;;;;;;;;4337258;32;317205;-79
2023/05/18 07:18:41;;;;;;;5.07;2.62;;;;;;;;;;4328423;32;318348;-77
2023/05/18 07:21:08;;;;;;;3.70;2.70;;;;;;;;;;4338467;32;317151;-78
2023/05/18 07:23:34;;;;;;;5.53;1.93;;;;;;;;;;4338137;32;317308;-83
2023/05/18 07:26:02;;;;;;;1.65;1.17;;;;;;;;;;4328817;32;317331;-78
2023/05/18 07:28:29;;;;;;;13.00;3.80;;;;;;;;;;4337951;32;316685;-85
2023/05/18 07:30:56;;;;;;;7.20;2.10;;;;;;;;;;4332740;32;318251;-78
2023/05/18 07:33:22;;;;;;;3.33;1.25;;;;;;;;;;4343107;32;317132;-81
2023/05/18 07:35:49;;;;;;;2.58;1.77;;;;;;;;;;4342631;32;317284;-77
2023/05/18 07:38:16;;;;;;;2.92;1.83;;;;;;;;;;4353001;32;317109;-79
2023/05/18 07:40:42;;;;;;;3.03;1.77;;;;;;;;;;4346762;32;316633;-84
2023/05/18 07:43:11;;;;;;;2.50;1.57;;;;;;;;;;4366816;32;316586;-79
2023/05/18 07:45:37;;;;;;;3.55;1.30;;;;;;;;;;4365473;32;317435;-78
2023/05/18 07:48:06;;;;;;;2.58;1.92;;;;;;;;;;4358094;32;316549;-79
2023/05/18 07:50:33;;;;;;;1.63;1.13;;;;;;;;;;4364342;32;317157;-84
2023/05/18 07:53:00;;;;;;;1.50;1.20;;;;;;;;;;4345573;32;317360;-82
2023/05/18 07:55:27;;;;;;;3.53;1.87;;;;;;;;;;4353343;32;317667;-81
2023/05/18 07:57:53;;;;;;;2.25;1.45;;;;;;;;;;4341576;32;317302;-79
2023/05/18 08:00:22;;;;;;;11.12;4.82;;;;;;;;;;4351729;32;317196;-83
2023/05/18 08:02:49;;;;;;;3.45;2.28;;;;;;;;;;4341239;32;317640;-81
2023/05/18 08:05:15;;;;;;;3.75;2.30;;;;;;;;;;4352093;32;316607;-86
2023/05/18 08:07:42;;;;;;;7.03;1.90;;;;;;;;;;4343502;32;317588;-83
2023/05/18 08:10:10;;;;;;;3.42;2.47;;;;;;;;;;4353229;32;317019;-84
2023/05/18 08:12:36;;;;;;;6.97;3.47;;;;;;;;;;4352516;32;317295;-85
2023/05/18 08:15:03;;;;;;;2.17;1.87;;;;;;;;;;4343422;32;317112;-81
2023/05/18 08:17:31;;;;;;;3.25;2.53;;;;;;;;;;4351661;32;317478;-77
2023/05/18 08:19:58;;;;;;;3.87;2.75;;;;;;;;;;4338730;32;346601;-82
2023/05/18 08:22:25;;;;;;;7.90;3.00;;;;;;;;;;4350796;32;317131;-82
2023/05/18 08:24:52;;;;;;;4.20;2.55;;;;;;;;;;4341151;32;317360;-85
2023/05/18 08:27:18;;;;;;;3.85;2.72;;;;;;;;;;4350682;32;317675;-81
2023/05/18 08:29:45;;;;;;;9.97;3.03;;;;;;;;;;4341608;32;327442;-79
2023/05/18 08:32:12;;;;;;;5.90;3.40;;;;;;;;;;4353564;32;317300;-85
2023/05/18 08:34:41;;;;;;;7.27;3.17;;;;;;;;;;4365519;32;348199;-79
2023/05/18 08:37:07;;;;;;;4.00;2.70;;;;;;;;;;4356254;32;415955;-78
2023/05/18 08:39:36;;;;;;;9.00;3.40;;;;;;;;;;4376670;32;317333;-78
2023/05/18 08:42:07;;;;;;;6.32;4.00;;;;;;;;;;4353432;32;316968;-79
2023/05/18 08:44:39;;;;;;;10.60;3.70;;;;;;;;;;4361783;32;317043;-78
2023/05/18 08:47:09;;;;;;;4.47;2.92;;;;;;;;;;4360472;32;418760;-77
2023/05/18 08:49:36;;;;;;;12.70;4.22;;;;;;;;;;4362477;32;317269;-79
2023/05/18 08:52:07;;;;;;;9.65;3.92;;;;;;;;;;4342134;32;353733;-81
2023/05/18 08:54:37;;;;;;;6.20;3.10;;;;;;;;;;4353626;32;318523;-80
2023/05/18 08:57:07;;;;;;;5.33;3.77;;;;;;;;;;4341183;32;317384;-78
2023/05/18 08:59:38;;;;;;;7.65;3.10;;;;;;;;;;4351231;32;317104;-79
2023/05/18 09:02:05;;;;;;;5.47;4.03;;;;;;;;;;4341494;32;317211;-79
2023/05/18 09:04:33;;;;;;;7.72;3.58;;;;;;;;;;4350317;32;317404;-79
2023/05/18 09:07:01;;;;;;;13.57;3.75;;;;;;;;;;4340689;32;317416;-79
2023/05/18 09:09:29;;;;;;;4.85;3.22;;;;;;;;;;4347004;32;317948;-80
2023/05/18 09:11:57;;;;;;;4.45;3.60;;;;;;;;;;4346101;32;337224;-80
2023/05/18 09:14:24;;;;;;;14.45;4.22;;;;;;;;;;4350970;32;317076;-80
2023/05/18 09:16:52;;;;;;;5.67;3.53;;;;;;;;;;4340304;32;317595;-79
2023/05/18 09:19:19;;;;;;;10.05;3.55;;;;;;;;;;4350791;32;317255;-80
2023/05/18 09:21:46;;;;;;;8.43;4.12;;;;;;;;;;4341150;32;318266;-79
2023/05/18 09:24:14;;;;;;;8.52;3.60;;;;;;;;;;4350436;32;317330;-78
2023/05/18 09:26:42;;;;;;;5.53;3.53;;;;;;;;;;4340013;32;317162;-81
2023/05/18 09:29:16;;;;;;;10.87;5.37;;;;;;;;;;4351502;32;317127;-80
2023/05/18 09:31:44;;;;;;;8.43;5.33;;;;;;;;;;4342328;32;318086;-81
2023/05/18 09:34:10;;;;;;;12.52;4.68;;;;;;;;;;4355948;32;317114;-81
2023/05/18 09:36:38;;;;;;;6.90;5.22;;;;;;;;;;4355111;32;318210;-80
2023/05/18 09:39:08;;;;;;;10.18;3.80;;;;;;;;;;4353621;32;412772;-81
2023/05/18 09:41:37;;;;;;;8.10;4.13;;;;;;;;;;4367445;32;317616;-80
2023/05/18 09:44:08;;;;;;;5.40;4.10;;;;;;;;;;4356975;32;349385;-81
2023/05/18 09:46:36;;;;;;;4.97;3.87;;;;;;;;;;4355280;32;317331;-80
2023/05/18 09:49:04;;;;;;;8.57;5.80;;;;;;;;;;4326558;32;317068;-81
2023/05/18 09:51:31;;;;;;;6.68;4.47;;;;;;;;;;4336336;32;317140;-80
2023/05/18 09:54:03;;;;;;;14.97;5.03;;;;;;;;;;4325763;32;355022;-83
2023/05/18 09:56:31;;;;;;;8.57;5.47;;;;;;;;;;4336857;32;349046;-81
2023/05/18 09:58:58;;;;;;;8.63;5.22;;;;;;;;;;4326257;32;317230;-79
2023/05/18 10:01:26;;;;;;;11.43;5.78;;;;;;;;;;4336428;32;317488;-81
2023/05/18 10:03:52;;;;;;;8.45;5.18;;;;;;;;;;4326422;32;318370;-79
2023/05/18 10:06:21;;;;;;;8.93;3.93;;;;;;;;;;4337140;32;325492;-80
2023/05/18 10:08:48;;;;;;;8.60;4.43;;;;;;;;;;4326673;32;317190;-80
2023/05/18 10:11:18;;;;;;;17.45;4.72;;;;;;;;;;4336713;32;317233;-81
2023/05/18 10:13:45;;;;;;;6.43;4.53;;;;;;;;;;4326646;32;318143;-81
2023/05/18 10:16:12;;;;;;;9.20;4.97;;;;;;;;;;4337502;32;316809;-81
2023/05/18 10:18:41;;;;;;;10.23;5.37;;;;;;;;;;4337045;32;317298;-81
2023/05/18 10:21:08;;;;;;;10.90;5.47;;;;;;;;;;4337672;32;418946;-81
2023/05/18 10:23:36;;;;;;;6.45;4.87;;;;;;;;;;4351440;32;336229;-80
2023/05/18 10:26:05;;;;;;;11.00;4.87;;;;;;;;;;4342375;32;317189;-80
2023/05/18 10:28:38;;;;;;;11.20;6.25;;;;;;;;;;4352254;32;318236;-80
2023/05/18 10:31:07;;;;;;;6.57;4.40;;;;;;;;;;4337900;32;419573;-78
2023/05/18 10:33:36;;;;;;;5.30;4.43;;;;;;;;;;4347233;32;317349;-78
2023/05/18 10:36:06;;;;;;;12.77;5.57;;;;;;;;;;4342388;32;317186;-80
2023/05/18 10:38:33;;;;;;;9.52;5.53;;;;;;;;;;4355095;32;318359;-78
2023/05/18 10:41:01;;;;;;;7.18;4.30;;;;;;;;;;4345462;32;317224;-78
2023/05/18 10:43:28;;;;;;;8.55;5.10;;;;;;;;;;4350338;32;317525;-79
2023/05/18 10:45:58;;;;;;;9.38;5.22;;;;;;;;;;4345360;32;317326;-77
2023/05/18 10:48:26;;;;;;;15.27;4.62;;;;;;;;;;4353022;32;317388;-77
2023/05/18 10:50:54;;;;;;;5.85;4.12;;;;;;;;;;4344087;32;336001;-77
2023/05/18 10:53:23;;;;;;;8.55;5.20;;;;;;;;;;4354460;32;317279;-78
2023/05/18 10:55:51;;;;;;;9.57;4.78;;;;;;;;;;4343446;32;317128;-77
2023/05/18 10:58:19;;;;;;;13.32;4.93;;;;;;;;;;4354067;32;317335;-78
2023/05/18 11:00:50;;;;;;;15.25;5.05;;;;;;;;;;4344641;32;318434;-82
2023/05/18 11:03:18;;;;;;;8.10;5.10;;;;;;;;;;4347783;32;318571;-78
2023/05/18 11:05:49;;;;;;;9.25;5.93;;;;;;;;;;4351819;32;317059;-78
2023/05/18 11:08:26;;;;;;;7.00;4.65;;;;;;;;;;4343736;32;317304;-81
2023/05/18 11:11:01;;;;;;;10.43;4.75;;;;;;;;;;4354474;32;317039;-80
2023/05/18 11:13:30;;;;;;;4.95;4.45;;;;;;;;;;4342286;32;418887;-80
2023/05/18 11:16:05;;;;;;;11.93;4.78;;;;;;;;;;4354033;32;317268;-78
2023/05/18 11:18:37;;;;;;;6.43;5.22;;;;;;;;;;4340365;32;419070;-78
2023/05/18 11:21:18;;;;;;;10.63;5.15;;;;;;;;;;4344452;32;317312;-78
2023/05/18 11:24:17;;;;;;;10.18;5.68;;;;;;;;;;4354140;32;318077;-77
2023/05/18 11:26:45;;;;;;;6.45;5.07;;;;;;;;;;4340027;32;419120;-81
2023/05/18 11:29:20;;;;;;;9.60;5.57;;;;;;;;;;4345134;32;317279;-81
2023/05/18 11:31:48;;;;;;;11.68;5.47;;;;;;;;;;4353531;32;317298;-79
2023/05/18 11:34:46;;;;;;;7.57;5.25;;;;;;;;;;4343018;32;318261;-77
2023/05/18 11:37:14;;;;;;;10.02;5.70;;;;;;;;;;4326497;32;317386;-78
2023/05/18 11:39:53;;;;;;;10.77;5.53;;;;;;;;;;4354396;32;318295;-78
2023/05/18 11:42:20;;;;;;;7.35;4.68;;;;;;;;;;4344342;32;318132;-81
2023/05/18 11:44:52;;;;;;;7.18;4.43;;;;;;;;;;4353681;32;317144;-83
2023/05/18 11:47:18;;;;;;;14.10;4.85;;;;;;;;;;4342956;32;317496;-83
2023/05/18 11:49:47;;;;;;;8.00;5.80;;;;;;;;;;4352226;32;318592;-84
2023/05/18 11:52:17;;;;;;;7.20;5.03;;;;;;;;;;4343115;32;316532;-80
2023/05/18 11:54:49;;;;;;;14.87;6.82;;;;;;;;;;4353994;32;317084;-78
2023/05/18 11:57:17;;;;;;;8.55;6.85;;;;;;;;;;4342896;32;318579;-85
2023/05/18 11:59:45;;;;;;;10.05;7.20;;;;;;;;;;4353893;32;317389;-83
2023/05/18 12:02:13;;;;;;;13.15;6.87;;;;;;;;;;4343566;32;318278;-81
2023/05/18 12:04:46;;;;;;;8.25;6.65;;;;;;;;;;4354118;32;317704;-78
2023/05/18 12:07:13;;;;;;;14.87;6.18;;;;;;;;;;4344177;32;317769;-80
2023/05/18 12:09:44;;;;;;;12.63;7.33;;;;;;;;;;4354147;32;318222;-77
2023/05/18 12:12:15;;;;;;;14.90;5.28;;;;;;;;;;4343668;32;318042;-82
2023/05/18 12:14:44;;;;;;;8.10;4.63;;;;;;;;;;4354091;32;318543;-77
2023/05/18 12:17:11;;;;;;;8.50;5.27;;;;;;;;;;4340864;32;343822;-77
2023/05/18 12:19:41;;;;;;;9.27;5.70;;;;;;;;;;4353086;32;317188;-79
2023/05/18 12:22:08;;;;;;;9.95;7.12;;;;;;;;;;4343114;32;317100;-85
2023/05/18 12:24:35;;;;;;;12.80;6.80;;;;;;;;;;4353118;32;316823;-85
2023/05/18 12:27:03;;;;;;;10.30;6.27;;;;;;;;;;4329579;32;318302;-86
2023/05/18 12:29:31;;;;;;;16.90;6.50;;;;;;;;;;4340313;32;318107;-87
2023/05/18 12:31:58;;;;;;;10.10;7.03;;;;;;;;;;4354229;32;318538;-86
2023/05/18 12:34:28;;;;;;;13.47;6.80;;;;;;;;;;4328825;32;418901;-86
2023/05/18 12:36:55;;;;;;;11.57;7.20;;;;;;;;;;4338937;32;318186;-86
2023/05/18 12:39:24;;;;;;;9.70;7.03;;;;;;;;;;4329999;32;318480;-85
2023/05/18 12:41:51;;;;;;;12.80;7.03;;;;;;;;;;4340699;32;316504;-84
2023/05/18 12:44:18;;;;;;;13.60;7.70;;;;;;;;;;4345919;32;317465;-86
2023/05/18 12:46:48;;;;;;;12.73;8.70;;;;;;;;;;4358293;32;316694;-79
2023/05/18 12:49:18;;;;;;;18.77;6.70;;;;;;;;;;4345847;32;353775;-79
2023/05/18 12:51:44;;;;;;;11.50;6.10;;;;;;;;;;4356481;32;352029;-80
2023/05/18 12:54:11;;;;;;;10.67;6.70;;;;;;;;;;4339005;32;318562;-85
2023/05/18 12:56:59;;;;;;;7.67;5.10;;;;;;;;;;4339061;32;317670;-87
2023/05/18 12:59:26;;;;;;;9.93;4.70;;;;;;;;;;4331557;32;416307;-88
2023/05/18 13:01:55;;;;;;;8.87;4.30;;;;;;;;;;4352558;32;317200;-85
2023/05/18 13:04:22;;;;;;;13.82;4.45;;;;;;;;;;4342909;32;317177;-87
2023/05/18 13:06:49;;;;;;;8.27;4.97;;;;;;;;;;4361942;32;317803;-86
2023/05/18 13:09:19;;;;;;;10.13;4.67;;;;;;;;;;4342239;32;317248;-85
2023/05/18 13:11:48;;;;;;;9.13;4.57;;;;;;;;;;4353084;32;317273;-86
2023/05/18 13:14:21;;;;;;;8.80;4.30;;;;;;;;;;4334610;32;316163;-89
2023/05/18 13:16:50;;;;;;;9.93;4.80;;;;;;;;;;4341628;32;317307;-83
2023/05/18 13:19:19;;;;;;;7.43;4.87;;;;;;;;;;4343607;32;317924;-86
2023/05/18 13:21:46;;;;;;;7.83;5.00;;;;;;;;;;4351914;32;316503;-86
2023/05/18 13:24:13;;;;;;;4.63;4.13;;;;;;;;;;4342035;32;335718;-85
2023/05/18 13:26:40;;;;;;;8.77;4.63;;;;;;;;;;4351412;32;317045;-78
2023/05/18 13:29:07;;;;;;;7.87;5.82;;;;;;;;;;4343264;32;317019;-78
2023/05/18 13:31:34;;;;;;;9.88;5.00;;;;;;;;;;4352888;32;317048;-79
2023/05/18 13:34:01;;;;;;;13.70;6.87;;;;;;;;;;4339127;32;317636;-83
2023/05/18 13:36:31;;;;;;;8.90;6.10;;;;;;;;;;4337850;32;318529;-78
2023/05/18 13:38:58;;;;;;;9.33;7.57;;;;;;;;;;4338105;32;317205;-78
2023/05/18 13:41:25;;;;;;;8.27;5.30;;;;;;;;;;4340756;32;417584;-78
2023/05/18 13:43:52;;;;;;;8.20;5.57;;;;;;;;;;4356144;32;317070;-78
2023/05/18 13:46:18;;;;;;;9.03;5.70;;;;;;;;;;4341570;32;317252;-78
2023/05/18 13:48:45;;;;;;;11.10;5.97;;;;;;;;;;4347506;32;316465;-78
2023/05/18 13:51:12;;;;;;;7.10;5.10;;;;;;;;;;4327551;32;318128;-78
2023/05/18 13:53:40;;;;;;;8.87;5.40;;;;;;;;;;4335122;32;355991;-79
2023/05/18 13:56:07;;;;;;;14.80;6.53;;;;;;;;;;4326595;32;316821;-78
2023/05/18 13:58:34;;;;;;;21.57;7.03;;;;;;;;;;4336419;32;318852;-79
2023/05/18 14:01:03;;;;;;;17.10;5.37;;;;;;;;;;4328013;32;318792;-81
2023/05/18 14:03:32;;;;;;;16.67;5.27;;;;;;;;;;4336903;32;318357;-79
2023/05/18 14:05:59;;;;;;;11.10;6.33;;;;;;;;;;4337055;32;318294;-79
2023/05/18 14:08:25;;;;;;;10.60;6.60;;;;;;;;;;4338283;32;419136;-78
2023/05/18 14:10:53;;;;;;;16.00;8.53;;;;;;;;;;4351630;32;318495;-78
2023/05/18 14:13:20;;;;;;;13.30;9.33;;;;;;;;;;4333853;32;318485;-78
2023/05/18 14:15:47;;;;;;;14.77;8.77;;;;;;;;;;4337356;32;317846;-85
2023/05/18 14:18:15;;;;;;;15.47;10.33;;;;;;;;;;4325935;32;318568;-84
2023/05/18 14:20:41;;;;;;;18.43;8.30;;;;;;;;;;4335358;33;348542;-78
2023/05/18 14:23:08;;;;;;;12.23;8.67;;;;;;;;;;4327448;33;318659;-78
2023/05/18 14:25:35;;;;;;;16.10;10.37;;;;;;;;;;4336175;32;317711;-78
2023/05/18 14:28:03;;;;;;;21.33;9.63;;;;;;;;;;4327293;33;319329;-79
2023/05/18 14:30:30;;;;;;;16.50;7.40;;;;;;;;;;4337404;32;318287;-78
2023/05/18 14:32:57;;;;;;;16.43;8.77;;;;;;;;;;4335860;33;318108;-82